sensor_id;sensor_type;location;lat;lon;timestamp;pressure;altitude;pressure_sealevel;temperature;humidity
66664;BME280;59683;51.428;-1.994;2023-05-06T00:01:32;100527.84;;;11.69;100.00
66664;BME280;59683;51.428;-1.994;2023-05-06T00:03:58;100527.84;;;11.69;100.00
66664;BME280;59683;51.428;-1.994;2023-05-06T00:06:23;100528.66;;;11.70;100.00
66664;BME280;59683;51.428;-1.994;2023-05-06T00:08:49;100533.28;;;11.67;100.00
66664;BME280;59683;51.428;-1.994;2023-05-06T00:11:14;100529.53;;;11.70;100.00
66664;BME280;59683;51.428;-1.994;2023-05-06T00:13:40;100531.06;;;11.73;100.00
66664;BME280;59683;51.428;-1.994;2023-05-06T00:16:06;100529.97;;;11.75;100.00
66664;BME280;59683;51.428;-1.994;2023-05-06T00:18:31;100526.22;;;11.78;100.00
66664;BME280;59683;51.428;-1.994;2023-05-06T00:20:57;100525.75;;;11.73;100.00
66664;BME280;59683;51.428;-1.994;2023-05-06T00:23:22;100527.06;;;11.78;100.00
66664;BME280;59683;51.428;-1.994;2023-05-06T00:25:48;100532.47;;;11.77;100.00
66664;BME280;59683;51.428;-1.994;2023-05-06T00:28:13;100521.19;;;11.75;100.00
66664;BME280;59683;51.428;-1.994;2023-05-06T00:30:39;100522.28;;;11.72;100.00
66664;BME280;59683;51.428;-1.994;2023-05-06T00:33:04;100520.03;;;11.67;100.00
66664;BME280;59683;51.428;-1.994;2023-05-06T00:35:30;100519.63;;;11.72;100.00
66664;BME280;59683;51.428;-1.994;2023-05-06T00:37:57;100524.91;;;11.72;100.00
66664;BME280;59683;51.428;-1.994;2023-05-06T00:40:22;100519.38;;;11.75;100.00
66664;BME280;59683;51.428;-1.994;2023-05-06T00:42:48;100497.31;;;11.75;100.00
66664;BME280;59683;51.428;-1.994;2023-05-06T00:45:13;100502.38;;;11.78;100.00
66664;BME280;59683;51.428;-1.994;2023-05-06T00:47:39;100505.59;;;11.81;100.00
66664;BME280;59683;51.428;-1.994;2023-05-06T00:50:06;100494.25;;;11.79;100.00
66664;BME280;59683;51.428;-1.994;2023-05-06T00:52:32;100499.72;;;11.78;100.00
66664;BME280;59683;51.428;-1.994;2023-05-06T00:54:57;100508.34;;;11.80;100.00
66664;BME280;59683;51.428;-1.994;2023-05-06T00:57:23;100501.13;;;11.82;100.00
66664;BME280;59683;51.428;-1.994;2023-05-06T00:59:48;100497.75;;;11.80;100.00
66664;BME280;59683;51.428;-1.994;2023-05-06T01:02:14;100485.63;;;11.77;100.00
66664;BME280;59683;51.428;-1.994;2023-05-06T01:04:40;100487.41;;;11.77;100.00
66664;BME280;59683;51.428;-1.994;2023-05-06T01:10:32;100486.31;;;11.79;100.00
66664;BME280;59683;51.428;-1.994;2023-05-06T01:13:33;100484.63;;;11.78;100.00
66664;BME280;59683;51.428;-1.994;2023-05-06T01:16:01;100486.72;;;11.75;100.00
66664;BME280;59683;51.428;-1.994;2023-05-06T01:18:29;100487.53;;;11.75;100.00
66664;BME280;59683;51.428;-1.994;2023-05-06T01:20:55;100484.75;;;11.77;100.00
66664;BME280;59683;51.428;-1.994;2023-05-06T01:23:21;100478.03;;;11.73;100.00
66664;BME280;59683;51.428;-1.994;2023-05-06T01:25:47;100490.19;;;11.75;100.00
66664;BME280;59683;51.428;-1.994;2023-05-06T01:28:12;100486.56;;;11.76;100.00
66664;BME280;59683;51.428;-1.994;2023-05-06T01:30:58;100479.00;;;11.72;100.00
66664;BME280;59683;51.428;-1.994;2023-05-06T01:33:35;100470.22;;;11.71;100.00
66664;BME280;59683;51.428;-1.994;2023-05-06T01:36:13;100465.44;;;11.65;100.00
66664;BME280;59683;51.428;-1.994;2023-05-06T01:41:24;100483.13;;;11.55;100.00
66664;BME280;59683;51.428;-1.994;2023-05-06T01:43:51;100477.63;;;11.47;100.00
66664;BME280;59683;51.428;-1.994;2023-05-06T01:46:20;100473.97;;;11.38;100.00
66664;BME280;59683;51.428;-1.994;2023-05-06T01:48:49;100470.28;;;11.29;100.00
66664;BME280;59683;51.428;-1.994;2023-05-06T01:51:16;100473.25;;;11.15;100.00
66664;BME280;59683;51.428;-1.994;2023-05-06T01:53:41;100475.78;;;10.96;100.00
66664;BME280;59683;51.428;-1.994;2023-05-06T01:56:07;100472.38;;;10.73;100.00
66664;BME280;59683;51.428;-1.994;2023-05-06T01:58:33;100469.94;;;10.49;100.00
66664;BME280;59683;51.428;-1.994;2023-05-06T02:00:58;100464.69;;;10.26;100.00
66664;BME280;59683;51.428;-1.994;2023-05-06T02:03:24;100463.03;;;10.03;100.00
66664;BME280;59683;51.428;-1.994;2023-05-06T02:05:49;100464.47;;;9.84;100.00
66664;BME280;59683;51.428;-1.994;2023-05-06T02:08:15;100462.06;;;9.70;100.00
66664;BME280;59683;51.428;-1.994;2023-05-06T03:18:30;100469.06;;;9.71;100.00
66664;BME280;59683;51.428;-1.994;2023-05-06T03:23:39;100469.53;;;9.65;100.00
66664;BME280;59683;51.428;-1.994;2023-05-06T03:26:17;100459.56;;;9.57;100.00
66664;BME280;59683;51.428;-1.994;2023-05-06T03:42:46;100448.75;;;9.83;100.00
66664;BME280;59683;51.428;-1.994;2023-05-06T03:45:12;100449.59;;;9.94;100.00
66664;BME280;59683;51.428;-1.994;2023-05-06T03:47:37;100447.41;;;10.00;100.00
66664;BME280;59683;51.428;-1.994;2023-05-06T03:50:03;100448.34;;;10.10;100.00
66664;BME280;59683;51.428;-1.994;2023-05-06T03:52:29;100443.53;;;10.15;100.00
66664;BME280;59683;51.428;-1.994;2023-05-06T03:54:54;100445.09;;;10.17;100.00
66664;BME280;59683;51.428;-1.994;2023-05-06T03:57:20;100449.16;;;10.21;100.00
66664;BME280;59683;51.428;-1.994;2023-05-06T03:59:45;100441.97;;;10.24;100.00
66664;BME280;59683;51.428;-1.994;2023-05-06T04:02:11;100441.00;;;10.25;100.00
66664;BME280;59683;51.428;-1.994;2023-05-06T04:04:36;100435.59;;;10.26;100.00
66664;BME280;59683;51.428;-1.994;2023-05-06T04:07:02;100434.50;;;10.29;100.00
66664;BME280;59683;51.428;-1.994;2023-05-06T04:09:28;100438.59;;;10.33;100.00
66664;BME280;59683;51.428;-1.994;2023-05-06T04:11:53;100427.91;;;10.34;100.00
66664;BME280;59683;51.428;-1.994;2023-05-06T04:14:18;100432.91;;;10.37;100.00
66664;BME280;59683;51.428;-1.994;2023-05-06T04:16:44;100442.56;;;10.38;100.00
66664;BME280;59683;51.428;-1.994;2023-05-06T04:19:09;100436.88;;;10.43;100.00
66664;BME280;59683;51.428;-1.994;2023-05-06T04:21:35;100443.47;;;10.49;100.00
66664;BME280;59683;51.428;-1.994;2023-05-06T04:24:00;100445.47;;;10.56;100.00
66664;BME280;59683;51.428;-1.994;2023-05-06T04:26:26;100439.84;;;10.61;100.00
66664;BME280;59683;51.428;-1.994;2023-05-06T04:28:51;100436.91;;;10.64;100.00
66664;BME280;59683;51.428;-1.994;2023-05-06T04:31:17;100440.97;;;10.68;100.00
66664;BME280;59683;51.428;-1.994;2023-05-06T04:33:42;100444.50;;;10.68;100.00
66664;BME280;59683;51.428;-1.994;2023-05-06T04:36:08;100439.19;;;10.68;100.00
66664;BME280;59683;51.428;-1.994;2023-05-06T04:38:33;100437.25;;;10.70;100.00
66664;BME280;59683;51.428;-1.994;2023-05-06T04:40:59;100441.56;;;10.72;100.00
66664;BME280;59683;51.428;-1.994;2023-05-06T04:43:25;100440.63;;;10.73;100.00
66664;BME280;59683;51.428;-1.994;2023-05-06T04:45:54;100443.84;;;10.76;100.00
66664;BME280;59683;51.428;-1.994;2023-05-06T04:48:20;100437.34;;;10.80;100.00
66664;BME280;59683;51.428;-1.994;2023-05-06T04:50:49;100443.47;;;10.81;100.00
66664;BME280;59683;51.428;-1.994;2023-05-06T04:53:15;100442.25;;;10.85;100.00
66664;BME280;59683;51.428;-1.994;2023-05-06T04:55:41;100438.88;;;10.83;100.00
66664;BME280;59683;51.428;-1.994;2023-05-06T04:58:06;100444.75;;;10.86;100.00
66664;BME280;59683;51.428;-1.994;2023-05-06T05:00:32;100443.41;;;10.92;100.00
66664;BME280;59683;51.428;-1.994;2023-05-06T05:02:58;100439.78;;;10.93;100.00
66664;BME280;59683;51.428;-1.994;2023-05-06T05:05:25;100439.78;;;10.93;100.00
66664;BME280;59683;51.428;-1.994;2023-05-06T05:07:51;100446.66;;;10.96;100.00
66664;BME280;59683;51.428;-1.994;2023-05-06T05:10:16;100441.09;;;10.99;100.00
66664;BME280;59683;51.428;-1.994;2023-05-06T05:12:42;100444.31;;;11.02;100.00
66664;BME280;59683;51.428;-1.994;2023-05-06T05:15:07;100448.41;;;11.06;100.00
66664;BME280;59683;51.428;-1.994;2023-05-06T05:17:33;100446.69;;;11.05;100.00
66664;BME280;59683;51.428;-1.994;2023-05-06T05:19:58;100456.94;;;11.10;100.00
66664;BME280;59683;51.428;-1.994;2023-05-06T05:22:23;100457.50;;;11.13;100.00
66664;BME280;59683;51.428;-1.994;2023-05-06T05:24:49;100460.75;;;11.17;100.00
66664;BME280;59683;51.428;-1.994;2023-05-06T05:27:14;100460.75;;;11.17;100.00
66664;BME280;59683;51.428;-1.994;2023-05-06T05:29:40;100461.44;;;11.19;100.00
66664;BME280;59683;51.428;-1.994;2023-05-06T05:32:05;100459.50;;;11.21;100.00
66664;BME280;59683;51.428;-1.994;2023-05-06T05:34:30;100453.22;;;11.22;100.00
66664;BME280;59683;51.428;-1.994;2023-05-06T05:36:56;100458.38;;;11.24;100.00
66664;BME280;59683;51.428;-1.994;2023-05-06T05:39:22;100453.91;;;11.24;100.00
66664;BME280;59683;51.428;-1.994;2023-05-06T05:44:50;100457.06;;;11.39;100.00
66664;BME280;59683;51.428;-1.994;2023-05-06T05:47:16;100454.00;;;11.34;100.00
66664;BME280;59683;51.428;-1.994;2023-05-06T05:49:41;100456.00;;;11.41;100.00
66664;BME280;59683;51.428;-1.994;2023-05-06T05:52:06;100455.00;;;11.42;100.00
66664;BME280;59683;51.428;-1.994;2023-05-06T05:54:33;100452.09;;;11.46;100.00
66664;BME280;59683;51.428;-1.994;2023-05-06T05:56:59;100455.91;;;11.53;100.00
66664;BME280;59683;51.428;-1.994;2023-05-06T05:59:26;100468.19;;;11.54;100.00
66664;BME280;59683;51.428;-1.994;2023-05-06T06:01:51;100453.84;;;11.56;100.00
66664;BME280;59683;51.428;-1.994;2023-05-06T06:04:17;100461.63;;;11.58;100.00
66664;BME280;59683;51.428;-1.994;2023-05-06T06:06:42;100454.81;;;11.55;100.00
66664;BME280;59683;51.428;-1.994;2023-05-06T06:09:08;100454.41;;;11.60;100.00
66664;BME280;59683;51.428;-1.994;2023-05-06T06:11:34;100458.72;;;11.61;100.00
66664;BME280;59683;51.428;-1.994;2023-05-06T06:13:59;100457.50;;;11.65;100.00
66664;BME280;59683;51.428;-1.994;2023-05-06T06:16:25;100456.53;;;11.66;100.00
66664;BME280;59683;51.428;-1.994;2023-05-06T06:18:52;100451.09;;;11.67;100.00
66664;BME280;59683;51.428;-1.994;2023-05-06T06:21:17;100458.78;;;11.71;100.00
66664;BME280;59683;51.428;-1.994;2023-05-06T06:23:46;100447.91;;;11.74;100.00
66664;BME280;59683;51.428;-1.994;2023-05-06T06:26:11;100459.09;;;11.77;100.00
66664;BME280;59683;51.428;-1.994;2023-05-06T06:28:37;100451.25;;;11.76;100.00
66664;BME280;59683;51.428;-1.994;2023-05-06T06:31:05;100436.75;;;11.70;100.00
66664;BME280;59683;51.428;-1.994;2023-05-06T06:33:31;100448.19;;;11.80;100.00
66664;BME280;59683;51.428;-1.994;2023-05-06T06:35:56;100447.50;;;11.78;100.00
66664;BME280;59683;51.428;-1.994;2023-05-06T06:38:27;100447.84;;;11.85;100.00
66664;BME280;59683;51.428;-1.994;2023-05-06T06:40:53;100449.53;;;11.86;100.00
66664;BME280;59683;51.428;-1.994;2023-05-06T06:43:28;100444.97;;;11.77;100.00
66664;BME280;59683;51.428;-1.994;2023-05-06T06:46:02;100446.94;;;11.75;100.00
66664;BME280;59683;51.428;-1.994;2023-05-06T06:48:28;100440.53;;;11.77;100.00
66664;BME280;59683;51.428;-1.994;2023-05-06T06:50:56;100447.25;;;11.81;100.00
66664;BME280;59683;51.428;-1.994;2023-05-06T06:53:40;100442.63;;;11.74;100.00
66664;BME280;59683;51.428;-1.994;2023-05-06T06:56:14;100448.50;;;11.77;100.00
66664;BME280;59683;51.428;-1.994;2023-05-06T06:58:40;100453.06;;;11.75;100.00
66664;BME280;59683;51.428;-1.994;2023-05-06T07:01:24;100444.56;;;11.72;100.00
66664;BME280;59683;51.428;-1.994;2023-05-06T07:03:55;100440.22;;;11.71;100.00
66664;BME280;59683;51.428;-1.994;2023-05-06T07:06:24;100439.25;;;11.72;100.00
66664;BME280;59683;51.428;-1.994;2023-05-06T07:08:51;100449.13;;;11.70;100.00
66664;BME280;59683;51.428;-1.994;2023-05-06T07:11:20;100438.94;;;11.65;100.00
66664;BME280;59683;51.428;-1.994;2023-05-06T07:16:50;100427.06;;;11.59;100.00
66664;BME280;59683;51.428;-1.994;2023-05-06T07:19:28;100442.81;;;11.61;100.00
66664;BME280;59683;51.428;-1.994;2023-05-06T07:28:29;100426.34;;;11.57;100.00
66664;BME280;59683;51.428;-1.994;2023-05-06T07:31:35;100431.13;;;11.63;100.00
66664;BME280;59683;51.428;-1.994;2023-05-06T07:40:53;100426.09;;;11.60;100.00
66664;BME280;59683;51.428;-1.994;2023-05-06T07:43:20;100424.00;;;11.64;100.00
66664;BME280;59683;51.428;-1.994;2023-05-06T08:03:49;100417.19;;;11.71;100.00
66664;BME280;59683;51.428;-1.994;2023-05-06T09:11:39;100361.22;;;13.20;100.00
66664;BME280;59683;51.428;-1.994;2023-05-06T09:14:13;100359.16;;;13.13;100.00
66664;BME280;59683;51.428;-1.994;2023-05-06T09:16:41;100354.41;;;13.07;100.00
66664;BME280;59683;51.428;-1.994;2023-05-06T09:19:06;100354.97;;;13.11;100.00
66664;BME280;59683;51.428;-1.994;2023-05-06T09:24:23;100360.16;;;12.93;100.00
66664;BME280;59683;51.428;-1.994;2023-05-06T09:26:50;100365.09;;;12.88;100.00
66664;BME280;59683;51.428;-1.994;2023-05-06T09:29:15;100348.88;;;12.81;100.00
66664;BME280;59683;51.428;-1.994;2023-05-06T09:31:42;100363.97;;;12.81;100.00
66664;BME280;59683;51.428;-1.994;2023-05-06T09:34:09;100375.16;;;12.84;100.00
66664;BME280;59683;51.428;-1.994;2023-05-06T09:36:35;100357.56;;;12.83;100.00
66664;BME280;59683;51.428;-1.994;2023-05-06T09:39:01;100372.94;;;12.70;100.00
66664;BME280;59683;51.428;-1.994;2023-05-06T09:41:26;100370.44;;;12.69;100.00
66664;BME280;59683;51.428;-1.994;2023-05-06T09:43:58;100372.25;;;12.68;100.00
66664;BME280;59683;51.428;-1.994;2023-05-06T09:46:25;100373.91;;;12.69;100.00
66664;BME280;59683;51.428;-1.994;2023-05-06T09:48:55;100363.97;;;12.71;100.00
66664;BME280;59683;51.428;-1.994;2023-05-06T09:51:21;100367.63;;;12.80;100.00
66664;BME280;59683;51.428;-1.994;2023-05-06T09:53:56;100370.41;;;12.88;100.00
66664;BME280;59683;51.428;-1.994;2023-05-06T09:56:22;100363.09;;;13.00;100.00
66664;BME280;59683;51.428;-1.994;2023-05-06T09:58:55;100360.97;;;13.13;100.00
66664;BME280;59683;51.428;-1.994;2023-05-06T10:01:42;100355.50;;;13.15;100.00
66664;BME280;59683;51.428;-1.994;2023-05-06T10:04:17;100348.91;;;13.19;100.00
66664;BME280;59683;51.428;-1.994;2023-05-06T10:06:48;100346.69;;;13.14;100.00
66664;BME280;59683;51.428;-1.994;2023-05-06T10:09:25;100351.03;;;13.25;100.00
66664;BME280;59683;51.428;-1.994;2023-05-06T10:11:52;100352.13;;;13.32;100.00
66664;BME280;59683;51.428;-1.994;2023-05-06T10:14:18;100346.94;;;13.30;100.00
66664;BME280;59683;51.428;-1.994;2023-05-06T10:16:53;100352.69;;;13.26;100.00
66664;BME280;59683;51.428;-1.994;2023-05-06T10:19:32;100338.28;;;13.19;100.00
66664;BME280;59683;51.428;-1.994;2023-05-06T10:25:17;100326.91;;;12.99;100.00
66664;BME280;59683;51.428;-1.994;2023-05-06T10:27:52;100336.97;;;12.95;100.00
66664;BME280;59683;51.428;-1.994;2023-05-06T10:30:30;100331.66;;;12.85;100.00
66664;BME280;59683;51.428;-1.994;2023-05-06T10:33:18;100338.81;;;12.85;100.00
66664;BME280;59683;51.428;-1.994;2023-05-06T10:36:10;100337.09;;;12.94;100.00
66664;BME280;59683;51.428;-1.994;2023-05-06T10:38:44;100337.66;;;12.97;100.00
66664;BME280;59683;51.428;-1.994;2023-05-06T10:41:15;100335.16;;;12.96;100.00
66664;BME280;59683;51.428;-1.994;2023-05-06T10:43:50;100334.03;;;12.98;100.00
66664;BME280;59683;51.428;-1.994;2023-05-06T10:46:21;100337.25;;;13.02;100.00
66664;BME280;59683;51.428;-1.994;2023-05-06T10:59:24;100320.56;;;13.09;100.00
66664;BME280;59683;51.428;-1.994;2023-05-06T11:05:09;100330.38;;;13.09;100.00
66664;BME280;59683;51.428;-1.994;2023-05-06T11:07:40;100334.13;;;13.06;100.00
66664;BME280;59683;51.428;-1.994;2023-05-06T11:10:09;100328.81;;;13.06;100.00
66664;BME280;59683;51.428;-1.994;2023-05-06T11:12:56;100320.81;;;13.16;100.00
66664;BME280;59683;51.428;-1.994;2023-05-06T11:15:43;100322.34;;;13.19;100.00
66664;BME280;59683;51.428;-1.994;2023-05-06T11:27:18;100325.63;;;13.03;100.00
66664;BME280;59683;51.428;-1.994;2023-05-06T11:29:48;100317.81;;;13.01;100.00
66664;BME280;59683;51.428;-1.994;2023-05-06T12:54:02;100326.66;;;13.84;100.00
66664;BME280;59683;51.428;-1.994;2023-05-06T12:57:00;100318.28;;;13.79;100.00
66664;BME280;59683;51.428;-1.994;2023-05-06T12:59:41;100311.97;;;13.63;100.00
66664;BME280;59683;51.428;-1.994;2023-05-06T13:06:13;100322.63;;;13.53;100.00
66664;BME280;59683;51.428;-1.994;2023-05-06T13:12:02;100328.94;;;13.52;100.00
66664;BME280;59683;51.428;-1.994;2023-05-06T13:14:29;100320.41;;;13.48;100.00
66664;BME280;59683;51.428;-1.994;2023-05-06T13:17:06;100324.28;;;13.54;100.00
66664;BME280;59683;51.428;-1.994;2023-05-06T13:19:34;100322.06;;;13.59;100.00
66664;BME280;59683;51.428;-1.994;2023-05-06T13:22:16;100323.22;;;13.74;100.00
66664;BME280;59683;51.428;-1.994;2023-05-06T13:31:44;100334.81;;;14.19;100.00
66664;BME280;59683;51.428;-1.994;2023-05-06T13:41:24;100319.59;;;14.11;100.00
66664;BME280;59683;51.428;-1.994;2023-05-06T13:47:53;100321.28;;;14.12;100.00
66664;BME280;59683;51.428;-1.994;2023-05-06T15:34:36;100278.78;;;14.64;100.00
66664;BME280;59683;51.428;-1.994;2023-05-06T15:37:11;100283.56;;;14.78;100.00
66664;BME280;59683;51.428;-1.994;2023-05-06T15:39:43;100284.06;;;14.82;100.00
66664;BME280;59683;51.428;-1.994;2023-05-06T15:42:13;100272.94;;;14.87;100.00
66664;BME280;59683;51.428;-1.994;2023-05-06T15:44:51;100279.94;;;14.88;100.00
66664;BME280;59683;51.428;-1.994;2023-05-06T15:47:44;100270.88;;;15.06;100.00
66664;BME280;59683;51.428;-1.994;2023-05-06T15:50:14;100263.94;;;15.22;100.00
66664;BME280;59683;51.428;-1.994;2023-05-06T15:56:00;100271.38;;;15.52;100.00
66664;BME280;59683;51.428;-1.994;2023-05-06T15:58:35;100278.41;;;15.62;100.00
66664;BME280;59683;51.428;-1.994;2023-05-06T16:01:07;100273.63;;;15.82;100.00
66664;BME280;59683;51.428;-1.994;2023-05-06T16:03:44;100269.63;;;15.69;100.00
66664;BME280;59683;51.428;-1.994;2023-05-06T16:06:23;100282.28;;;15.75;100.00
66664;BME280;59683;51.428;-1.994;2023-05-06T16:11:57;100271.66;;;15.84;100.00
66664;BME280;59683;51.428;-1.994;2023-05-06T16:14:37;100279.63;;;15.75;100.00
66664;BME280;59683;51.428;-1.994;2023-05-06T16:17:15;100286.84;;;15.99;100.00
66664;BME280;59683;51.428;-1.994;2023-05-06T16:20:00;100280.31;;;16.02;100.00
66664;BME280;59683;51.428;-1.994;2023-05-06T16:22:26;100278.16;;;16.06;100.00
66664;BME280;59683;51.428;-1.994;2023-05-06T16:25:02;100277.31;;;16.05;100.00
66664;BME280;59683;51.428;-1.994;2023-05-06T16:27:36;100272.66;;;16.15;100.00
66664;BME280;59683;51.428;-1.994;2023-05-06T16:30:07;100268.47;;;16.21;100.00
66664;BME280;59683;51.428;-1.994;2023-05-06T16:32:35;100273.00;;;16.20;100.00
66664;BME280;59683;51.428;-1.994;2023-05-06T16:35:01;100274.00;;;15.95;100.00
66664;BME280;59683;51.428;-1.994;2023-05-06T16:37:29;100276.28;;;15.73;100.00
66664;BME280;59683;51.428;-1.994;2023-05-06T16:40:05;100277.13;;;15.74;100.00
66664;BME280;59683;51.428;-1.994;2023-05-06T16:42:32;100273.63;;;15.73;100.00
66664;BME280;59683;51.428;-1.994;2023-05-06T16:44:57;100276.94;;;15.75;100.00
66664;BME280;59683;51.428;-1.994;2023-05-06T16:47:25;100289.81;;;15.80;100.00
66664;BME280;59683;51.428;-1.994;2023-05-06T16:49:59;100298.16;;;15.77;100.00
66664;BME280;59683;51.428;-1.994;2023-05-06T16:52:27;100279.97;;;15.72;100.00
66664;BME280;59683;51.428;-1.994;2023-05-06T16:55:00;100292.25;;;15.57;100.00
66664;BME280;59683;51.428;-1.994;2023-05-06T16:57:26;100299.34;;;15.40;100.00
66664;BME280;59683;51.428;-1.994;2023-05-06T16:59:51;100296.06;;;15.12;100.00
66664;BME280;59683;51.428;-1.994;2023-05-06T17:02:17;100294.13;;;14.96;100.00
66664;BME280;59683;51.428;-1.994;2023-05-06T17:04:42;100293.16;;;14.71;100.00
66664;BME280;59683;51.428;-1.994;2023-05-06T17:07:07;100303.38;;;14.58;100.00
66664;BME280;59683;51.428;-1.994;2023-05-06T17:09:35;100309.00;;;14.55;100.00
66664;BME280;59683;51.428;-1.994;2023-05-06T17:12:00;100309.34;;;14.52;100.00
66664;BME280;59683;51.428;-1.994;2023-05-06T17:14:26;100302.00;;;14.54;100.00
66664;BME280;59683;51.428;-1.994;2023-05-06T17:16:51;100308.19;;;14.54;100.00
66664;BME280;59683;51.428;-1.994;2023-05-06T17:19:17;100300.50;;;14.51;100.00
66664;BME280;59683;51.428;-1.994;2023-05-06T17:21:42;100299.28;;;14.64;100.00
66664;BME280;59683;51.428;-1.994;2023-05-06T17:24:08;100280.72;;;14.80;100.00
66664;BME280;59683;51.428;-1.994;2023-05-06T17:26:33;100286.38;;;15.11;100.00
66664;BME280;59683;51.428;-1.994;2023-05-06T17:28:59;100281.50;;;15.41;100.00
66664;BME280;59683;51.428;-1.994;2023-05-06T17:31:25;100271.63;;;15.75;100.00
66664;BME280;59683;51.428;-1.994;2023-05-06T17:33:51;100267.66;;;15.96;100.00
66664;BME280;59683;51.428;-1.994;2023-05-06T17:36:19;100275.53;;;16.14;100.00
66664;BME280;59683;51.428;-1.994;2023-05-06T17:38:46;100280.34;;;16.10;100.00
66664;BME280;59683;51.428;-1.994;2023-05-06T17:41:12;100283.47;;;15.73;100.00
66664;BME280;59683;51.428;-1.994;2023-05-06T17:43:38;100284.28;;;15.65;100.00
66664;BME280;59683;51.428;-1.994;2023-05-06T17:46:03;100279.03;;;15.55;100.00
66664;BME280;59683;51.428;-1.994;2023-05-06T17:48:29;100284.53;;;15.46;100.00
66664;BME280;59683;51.428;-1.994;2023-05-06T17:51:01;100291.88;;;15.52;100.00
66664;BME280;59683;51.428;-1.994;2023-05-06T17:53:27;100292.97;;;15.33;100.00
66664;BME280;59683;51.428;-1.994;2023-05-06T17:55:53;100290.28;;;15.25;100.00
66664;BME280;59683;51.428;-1.994;2023-05-06T17:58:18;100290.75;;;15.20;100.00
66664;BME280;59683;51.428;-1.994;2023-05-06T18:00:44;100288.97;;;15.37;100.00
66664;BME280;59683;51.428;-1.994;2023-05-06T18:03:10;100288.31;;;15.35;100.00
66664;BME280;59683;51.428;-1.994;2023-05-06T18:05:35;100286.47;;;15.27;100.00
66664;BME280;59683;51.428;-1.994;2023-05-06T18:08:01;100288.97;;;15.29;100.00
66664;BME280;59683;51.428;-1.994;2023-05-06T18:10:26;100289.50;;;15.41;100.00
66664;BME280;59683;51.428;-1.994;2023-05-06T18:12:52;100288.38;;;15.51;100.00
66664;BME280;59683;51.428;-1.994;2023-05-06T18:15:19;100292.03;;;15.50;100.00
66664;BME280;59683;51.428;-1.994;2023-05-06T18:17:44;100295.44;;;15.26;100.00
66664;BME280;59683;51.428;-1.994;2023-05-06T18:20:10;100293.31;;;15.04;100.00
66664;BME280;59683;51.428;-1.994;2023-05-06T18:22:36;100293.22;;;14.79;100.00
66664;BME280;59683;51.428;-1.994;2023-05-06T18:25:03;100306.81;;;14.50;100.00
66664;BME280;59683;51.428;-1.994;2023-05-06T18:27:29;100317.97;;;14.36;100.00
66664;BME280;59683;51.428;-1.994;2023-05-06T18:29:56;100322.34;;;14.19;100.00
66664;BME280;59683;51.428;-1.994;2023-05-06T18:32:23;100326.75;;;14.11;100.00
66664;BME280;59683;51.428;-1.994;2023-05-06T18:34:48;100336.47;;;14.02;100.00
66664;BME280;59683;51.428;-1.994;2023-05-06T18:37:14;100347.25;;;13.82;100.00
66664;BME280;59683;51.428;-1.994;2023-05-06T18:39:40;100341.84;;;13.74;100.00
66664;BME280;59683;51.428;-1.994;2023-05-06T18:42:06;100340.50;;;13.60;100.00
66664;BME280;59683;51.428;-1.994;2023-05-06T18:44:31;100343.31;;;13.59;100.00
66664;BME280;59683;51.428;-1.994;2023-05-06T18:46:56;100345.38;;;13.65;100.00
66664;BME280;59683;51.428;-1.994;2023-05-06T18:49:22;100348.03;;;13.65;100.00
66664;BME280;59683;51.428;-1.994;2023-05-06T18:51:47;100344.31;;;13.58;100.00
66664;BME280;59683;51.428;-1.994;2023-05-06T18:54:13;100354.16;;;13.48;100.00
66664;BME280;59683;51.428;-1.994;2023-05-06T18:56:38;100348.78;;;13.30;100.00
66664;BME280;59683;51.428;-1.994;2023-05-06T18:59:03;100355.22;;;13.18;100.00
66664;BME280;59683;51.428;-1.994;2023-05-06T19:01:29;100347.44;;;13.06;100.00
66664;BME280;59683;51.428;-1.994;2023-05-06T19:03:55;100359.00;;;13.15;100.00
66664;BME280;59683;51.428;-1.994;2023-05-06T19:06:20;100363.88;;;13.20;100.00
66664;BME280;59683;51.428;-1.994;2023-05-06T19:08:46;100359.00;;;13.25;100.00
66664;BME280;59683;51.428;-1.994;2023-05-06T19:11:15;100360.50;;;13.27;100.00
66664;BME280;59683;51.428;-1.994;2023-05-06T19:13:42;100366.09;;;13.34;100.00
66664;BME280;59683;51.428;-1.994;2023-05-06T19:16:07;100371.56;;;13.32;100.00
66664;BME280;59683;51.428;-1.994;2023-05-06T19:18:33;100372.25;;;13.34;100.00
66664;BME280;59683;51.428;-1.994;2023-05-06T19:20:58;100379.53;;;13.32;100.00
66664;BME280;59683;51.428;-1.994;2023-05-06T19:23:24;100392.56;;;13.35;100.00
66664;BME280;59683;51.428;-1.994;2023-05-06T19:25:49;100392.84;;;13.32;100.00
66664;BME280;59683;51.428;-1.994;2023-05-06T19:28:14;100385.31;;;13.28;100.00
66664;BME280;59683;51.428;-1.994;2023-05-06T19:30:40;100392.97;;;13.31;100.00
66664;BME280;59683;51.428;-1.994;2023-05-06T19:33:05;100390.75;;;13.26;100.00
66664;BME280;59683;51.428;-1.994;2023-05-06T19:35:31;100389.63;;;13.19;100.00
66664;BME280;59683;51.428;-1.994;2023-05-06T19:37:57;100394.09;;;13.19;100.00
66664;BME280;59683;51.428;-1.994;2023-05-06T19:40:22;100403.88;;;13.18;100.00
66664;BME280;59683;51.428;-1.994;2023-05-06T19:42:48;100406.81;;;13.15;100.00
66664;BME280;59683;51.428;-1.994;2023-05-06T19:45:14;100413.69;;;13.08;100.00
66664;BME280;59683;51.428;-1.994;2023-05-06T19:47:39;100408.41;;;12.98;100.00
66664;BME280;59683;51.428;-1.994;2023-05-06T19:50:05;100407.03;;;12.84;100.00
66664;BME280;59683;51.428;-1.994;2023-05-06T19:52:31;100404.81;;;12.70;100.00
66664;BME280;59683;51.428;-1.994;2023-05-06T19:55:01;100415.56;;;12.59;100.00
66664;BME280;59683;51.428;-1.994;2023-05-06T19:57:27;100412.63;;;12.52;100.00